Time;durP1;ratioP1;P1;durP2;ratioP2;P2;SDS_P1;SDS_P2;PMS_P1;PMS_P2;Temp;Humidity;BMP_temperature;BMP_pressure;BME280_temperature;BME280_humidity;BME280_pressure;Samples;Min_cycle;Max_cycle;Signal;HPM_P1;HPM_P2
2024/01/05 00:01:25;;;;;;;17.52;11.82;;;3.70;99.90;;;;;;5112464;27;20394;-94
2024/01/05 00:03:51;;;;;;;20.63;11.75;;;3.70;99.90;;;;;;5113379;27;20401;-91
2024/01/05 00:06:17;;;;;;;16.10;11.85;;;3.80;99.90;;;;;;5112295;27;20403;-91
2024/01/05 00:08:42;;;;;;;17.48;12.05;;;3.70;99.90;;;;;;5113245;27;20997;-92
2024/01/05 00:11:08;;;;;;;20.03;13.10;;;3.80;99.90;;;;;;5112724;27;20413;-93
2024/01/05 00:13:34;;;;;;;18.57;13.20;;;3.80;99.90;;;;;;5113057;27;20548;-92
2024/01/05 00:15:59;;;;;;;22.70;13.80;;;4.20;99.90;;;;;;5113451;27;20403;-93
2024/01/05 00:18:25;;;;;;;19.33;13.55;;;3.60;99.90;;;;;;5112665;27;20494;-91
2024/01/05 00:20:51;;;;;;;23.95;13.80;;;3.50;99.90;;;;;;5113424;27;20835;-92
2024/01/05 00:23:16;;;;;;;21.00;14.67;;;4.10;99.90;;;;;;5112019;27;20409;-91
2024/01/05 00:25:42;;;;;;;24.00;15.30;;;3.60;99.90;;;;;;5113391;27;20394;-91
2024/01/05 00:28:08;;;;;;;22.48;16.10;;;3.60;99.90;;;;;;5112772;27;20463;-93
2024/01/05 00:30:34;;;;;;;27.00;15.97;;;3.60;99.90;;;;;;5112518;27;20945;-89
2024/01/05 00:33:00;;;;;;;25.98;17.27;;;3.60;99.90;;;;;;5112685;27;20401;-91
2024/01/05 00:35:26;;;;;;;28.98;17.90;;;3.80;99.90;;;;;;5112283;27;20391;-94
2024/01/05 00:37:52;;;;;;;28.92;18.05;;;3.70;99.90;;;;;;5112698;27;20410;-93
2024/01/05 00:40:18;;;;;;;27.30;18.20;;;3.90;99.90;;;;;;5129516;27;20858;-92
2024/01/05 00:42:43;;;;;;;29.00;19.02;;;3.60;99.90;;;;;;5113500;27;20386;-91
2024/01/05 00:45:10;;;;;;;29.23;19.83;;;3.50;99.90;;;;;;5111890;27;20422;-91
2024/01/05 00:47:36;;;;;;;28.50;19.20;;;3.50;99.90;;;;;;5112737;27;20962;-91
2024/01/05 00:50:01;;;;;;;32.57;19.50;;;3.30;99.90;;;;;;5130066;27;20429;-90
2024/01/05 00:52:27;;;;;;;28.52;19.13;;;3.70;99.90;;;;;;5129252;27;20393;-92
2024/01/05 00:54:53;;;;;;;31.23;20.00;;;3.40;99.90;;;;;;5124800;27;20749;-94
2024/01/05 00:57:18;;;;;;;33.10;20.13;;;3.50;99.90;;;;;;5132042;27;20401;-94
2024/01/05 00:59:44;;;;;;;29.43;20.10;;;3.50;99.90;;;;;;5133457;27;20405;-92
2024/01/05 01:02:10;;;;;;;29.30;19.75;;;3.40;99.90;;;;;;5131455;27;20400;-92
2024/01/05 01:04:36;;;;;;;28.65;19.35;;;3.40;99.90;;;;;;5150467;27;20469;-92
2024/01/05 01:07:01;;;;;;;32.78;20.08;;;3.60;99.90;;;;;;5132088;27;20430;-92
2024/01/05 01:09:27;;;;;;;29.83;19.93;;;3.50;99.90;;;;;;5132537;27;20464;-93
2024/01/05 01:11:53;;;;;;;30.73;19.47;;;3.70;99.90;;;;;;5132425;27;20488;-94
2024/01/05 01:14:19;;;;;;;31.73;20.42;;;3.30;99.90;;;;;;5132038;27;20423;-91
2024/01/05 01:16:44;;;;;;;30.20;18.90;;;3.50;99.90;;;;;;5132899;27;20753;-93
2024/01/05 01:19:10;;;;;;;29.33;19.93;;;3.50;99.90;;;;;;5131816;27;20898;-91
2024/01/05 01:21:36;;;;;;;30.88;19.65;;;3.30;99.90;;;;;;5133100;27;20760;-90
2024/01/05 01:24:01;;;;;;;28.10;19.00;;;3.40;99.90;;;;;;5131439;27;20398;-94
2024/01/05 01:26:27;;;;;;;27.93;19.27;;;3.30;99.90;;;;;;5150493;27;20441;-91
2024/01/05 01:28:53;;;;;;;30.80;19.83;;;3.30;99.90;;;;;;5131909;27;20931;-89
2024/01/05 01:31:18;;;;;;;32.67;21.00;;;3.40;99.90;;;;;;5149263;27;20425;-93
2024/01/05 01:33:44;;;;;;;31.53;20.53;;;3.70;99.90;;;;;;5132128;27;20457;-93
2024/01/05 01:36:10;;;;;;;32.07;20.47;;;3.40;99.90;;;;;;5131284;27;20397;-93
2024/01/05 01:38:36;;;;;;;32.90;20.33;;;3.50;99.90;;;;;;5132571;27;20491;-92
2024/01/05 01:41:02;;;;;;;32.75;20.83;;;3.30;99.90;;;;;;5131405;27;20424;-91
2024/01/05 01:43:28;;;;;;;32.07;19.97;;;3.60;99.90;;;;;;5132504;27;20440;-93
2024/01/05 01:45:59;;;;;;;33.50;20.35;;;3.10;99.90;;;;;;5131350;27;20801;-91
2024/01/05 01:48:26;;;;;;;30.17;19.63;;;3.30;99.90;;;;;;5131606;27;20933;-89
2024/01/05 01:50:54;;;;;;;32.28;20.65;;;3.40;99.90;;;;;;5132190;27;20473;-91
2024/01/05 01:53:21;;;;;;;34.25;20.27;;;3.50;99.90;;;;;;5148461;27;20400;-91
2024/01/05 01:55:49;;;;;;;35.43;21.13;;;3.20;99.90;;;;;;5131764;27;20450;-92
2024/01/05 01:58:19;;;;;;;35.72;21.83;;;3.20;99.90;;;;;;5130965;27;20884;-94
2024/01/05 02:00:45;;;;;;;34.08;20.85;;;3.10;99.90;;;;;;5132064;27;20488;-92
2024/01/05 02:03:13;;;;;;;35.33;21.15;;;3.10;99.90;;;;;;5131283;27;20930;-92
2024/01/05 02:05:39;;;;;;;34.15;21.38;;;3.00;99.90;;;;;;5131589;27;20452;-90
2024/01/05 02:08:05;;;;;;;35.03;21.23;;;3.30;99.90;;;;;;5131831;27;20458;-91
2024/01/05 02:10:30;;;;;;;34.20;21.52;;;3.10;99.90;;;;;;5130195;27;20423;-93
2024/01/05 02:12:57;;;;;;;36.23;21.33;;;3.10;99.90;;;;;;5131623;27;20489;-88
2024/01/05 02:15:23;;;;;;;35.10;21.13;;;3.10;99.90;;;;;;5130637;27;20393;-90
2024/01/05 02:17:48;;;;;;;35.00;20.48;;;3.30;99.90;;;;;;5130993;27;20411;-91
2024/01/05 02:20:14;;;;;;;34.63;20.17;;;3.10;99.90;;;;;;5130739;27;20397;-89
2024/01/05 02:22:47;;;;;;;35.53;20.27;;;3.10;99.90;;;;;;5116539;27;20398;-89
2024/01/05 02:25:12;;;;;;;31.08;19.10;;;3.10;99.90;;;;;;5110568;28;20406;-92
2024/01/05 02:27:39;;;;;;;33.92;19.75;;;3.10;99.90;;;;;;5110091;27;20412;-88
2024/01/05 02:30:05;;;;;;;33.33;19.48;;;3.10;99.90;;;;;;5110635;27;20819;-90
2024/01/05 02:32:31;;;;;;;37.25;19.55;;;3.10;99.90;;;;;;5109308;28;20405;-89
2024/01/05 02:34:57;;;;;;;33.85;19.08;;;3.10;99.90;;;;;;5110763;27;20403;-88
2024/01/05 02:37:22;;;;;;;36.00;19.42;;;3.30;99.90;;;;;;5108838;28;20418;-87
2024/01/05 02:39:48;;;;;;;35.40;19.33;;;3.10;99.90;;;;;;5133712;27;20400;-90
2024/01/05 02:42:14;;;;;;;30.83;17.80;;;3.10;99.90;;;;;;5130484;27;20728;-89
2024/01/05 02:44:39;;;;;;;34.88;18.85;;;3.20;99.90;;;;;;5130575;27;20887;-89
2024/01/05 02:47:05;;;;;;;33.13;17.98;;;3.10;99.90;;;;;;5130972;27;20405;-89
2024/01/05 02:49:31;;;;;;;33.72;18.05;;;3.30;99.90;;;;;;5129627;27;20416;-88
2024/01/05 02:51:57;;;;;;;32.72;17.65;;;3.10;99.90;;;;;;5130489;27;20450;-90
2024/01/05 02:54:22;;;;;;;32.28;17.42;;;3.10;99.90;;;;;;5117720;28;20406;-91
2024/01/05 02:56:49;;;;;;;28.90;15.67;;;3.20;99.90;;;;;;5110801;28;20422;-92
2024/01/05 02:59:15;;;;;;;31.50;16.55;;;3.10;99.90;;;;;;5120575;27;20405;-88
2024/01/05 03:01:41;;;;;;;30.77;16.77;;;3.10;99.90;;;;;;5130081;27;20440;-88
2024/01/05 03:04:07;;;;;;;30.97;16.07;;;3.20;99.90;;;;;;5130583;27;20470;-90
2024/01/05 03:06:33;;;;;;;28.88;15.95;;;3.20;99.90;;;;;;5115941;28;20497;-89
2024/01/05 03:08:59;;;;;;;31.30;16.20;;;3.10;99.90;;;;;;5109789;28;20535;-91
2024/01/05 03:11:25;;;;;;;26.33;15.73;;;3.20;99.90;;;;;;5126517;27;20523;-88
2024/01/05 03:13:50;;;;;;;29.38;15.75;;;3.20;99.90;;;;;;5110320;28;20438;-91
2024/01/05 03:16:16;;;;;;;29.63;15.93;;;3.10;99.90;;;;;;5109039;27;20391;-90
2024/01/05 03:18:42;;;;;;;27.92;15.80;;;3.10;99.90;;;;;;5110583;28;20455;-88
2024/01/05 03:21:08;;;;;;;28.98;15.98;;;3.10;99.90;;;;;;5109545;28;20402;-90
2024/01/05 03:23:34;;;;;;;32.15;17.08;;;3.10;99.90;;;;;;5109744;28;20442;-89
2024/01/05 03:26:00;;;;;;;33.00;16.87;;;3.10;99.90;;;;;;5126930;27;20453;-88
2024/01/05 03:28:26;;;;;;;31.17;16.63;;;3.10;99.90;;;;;;5109637;27;20479;-92
2024/01/05 03:30:52;;;;;;;32.65;17.13;;;3.30;99.90;;;;;;5113888;27;20469;-91
2024/01/05 03:33:20;;;;;;;33.63;18.03;;;3.10;99.90;;;;;;5112776;27;20383;-87
2024/01/05 03:35:45;;;;;;;34.60;18.10;;;3.10;99.90;;;;;;5114115;27;20822;-88
2024/01/05 03:38:11;;;;;;;35.63;18.10;;;3.10;99.90;;;;;;5113200;27;20439;-92
2024/01/05 03:40:37;;;;;;;33.13;18.00;;;3.30;99.90;;;;;;5113429;27;20933;-88
2024/01/05 03:43:03;;;;;;;35.33;19.03;;;3.10;99.90;;;;;;5112929;27;20758;-88
2024/01/05 03:45:29;;;;;;;36.13;18.80;;;3.00;99.90;;;;;;5113222;27;20491;-92
2024/01/05 03:47:56;;;;;;;36.00;18.87;;;3.10;99.90;;;;;;5113332;27;20734;-88
2024/01/05 03:50:21;;;;;;;35.45;19.30;;;3.10;99.90;;;;;;5112553;27;20448;-91
2024/01/05 03:52:47;;;;;;;39.03;19.48;;;2.90;99.90;;;;;;5120520;27;20397;-87
2024/01/05 03:55:13;;;;;;;38.97;19.77;;;3.30;99.90;;;;;;5132945;27;20813;-88
2024/01/05 03:57:38;;;;;;;40.63;19.43;;;3.40;99.90;;;;;;5134229;27;20469;-88
2024/01/05 04:00:05;;;;;;;37.30;18.45;;;2.90;99.90;;;;;;5129621;27;20433;-90
2024/01/05 04:02:31;;;;;;;43.38;19.50;;;3.10;99.90;;;;;;5130302;27;20402;-88
2024/01/05 04:04:56;;;;;;;35.55;18.73;;;3.10;99.90;;;;;;5113162;27;21136;-88
2024/01/05 04:07:22;;;;;;;36.57;18.10;;;3.10;99.90;;;;;;5112159;27;20517;-90
2024/01/05 04:09:50;;;;;;;34.67;17.87;;;2.90;99.90;;;;;;5113128;27;20510;-88
2024/01/05 04:12:17;;;;;;;32.63;16.50;;;3.10;99.90;;;;;;5112239;27;20405;-88
2024/01/05 04:14:44;;;;;;;37.53;16.93;;;3.10;99.90;;;;;;5113010;27;20406;-88
2024/01/05 04:17:11;;;;;;;30.95;16.23;;;3.10;99.90;;;;;;5112301;27;20792;-88
2024/01/05 04:19:37;;;;;;;33.03;16.70;;;3.10;99.90;;;;;;5129968;27;20410;-90
2024/01/05 04:22:05;;;;;;;32.27;16.10;;;3.00;99.90;;;;;;5111916;27;20399;-88
2024/01/05 04:24:31;;;;;;;31.83;16.58;;;3.00;99.90;;;;;;5129398;27;20414;-90
2024/01/05 04:26:57;;;;;;;32.47;15.13;;;3.00;99.90;;;;;;5112791;27;20391;-91
2024/01/05 04:29:22;;;;;;;25.93;14.37;;;3.20;99.90;;;;;;5129062;27;20444;-89
2024/01/05 04:31:48;;;;;;;28.27;15.97;;;3.20;99.90;;;;;;5113056;27;20463;-89
2024/01/05 04:34:14;;;;;;;30.63;15.82;;;3.00;99.90;;;;;;5112062;27;20403;-87
2024/01/05 04:36:39;;;;;;;30.45;16.02;;;3.10;99.90;;;;;;5112329;27;20908;-95
2024/01/05 04:39:05;;;;;;;31.03;16.53;;;3.30;99.90;;;;;;5112633;27;20411;-89
2024/01/05 04:41:31;;;;;;;31.13;15.70;;;3.10;99.90;;;;;;5111294;27;20406;-88
2024/01/05 04:43:57;;;;;;;32.85;16.35;;;3.10;99.90;;;;;;5112598;27;20467;-89
2024/01/05 04:46:22;;;;;;;31.23;16.50;;;3.10;99.90;;;;;;5111521;27;20453;-87
2024/01/05 04:48:48;;;;;;;29.80;15.32;;;3.40;99.90;;;;;;5112652;27;20429;-88
2024/01/05 04:51:14;;;;;;;27.27;14.75;;;3.10;99.90;;;;;;5128953;27;20394;-88
2024/01/05 04:53:39;;;;;;;25.02;14.35;;;3.30;99.90;;;;;;5130019;27;20897;-91
2024/01/05 04:56:05;;;;;;;27.60;13.63;;;3.40;99.90;;;;;;5112498;27;20411;-90
2024/01/05 04:58:31;;;;;;;23.77;13.27;;;3.10;99.90;;;;;;5111800;27;20399;-94
2024/01/05 05:00:57;;;;;;;22.13;12.93;;;3.40;99.90;;;;;;5112199;27;20811;-88
2024/01/05 05:03:25;;;;;;;24.27;12.80;;;3.10;99.90;;;;;;5112182;27;20442;-91
2024/01/05 05:05:51;;;;;;;25.23;13.07;;;3.10;99.90;;;;;;5112351;27;20901;-91
2024/01/05 05:08:16;;;;;;;24.33;13.50;;;3.10;99.90;;;;;;5110865;27;20451;-90
2024/01/05 05:10:42;;;;;;;23.75;13.25;;;3.20;99.90;;;;;;5112361;27;20479;-91
2024/01/05 05:13:09;;;;;;;23.13;12.48;;;3.20;99.90;;;;;;5111467;27;20455;-89
2024/01/05 05:15:36;;;;;;;23.02;13.18;;;3.20;99.90;;;;;;5111972;27;20421;-88
2024/01/05 05:18:02;;;;;;;21.55;12.85;;;3.40;99.90;;;;;;5111856;27;20403;-88
2024/01/05 05:20:27;;;;;;;20.50;12.32;;;3.20;99.90;;;;;;5111353;27;20524;-91
2024/01/05 05:22:53;;;;;;;24.87;13.27;;;3.50;99.90;;;;;;5129069;27;20395;-91
2024/01/05 05:25:19;;;;;;;23.83;13.27;;;3.20;99.90;;;;;;5127841;27;20447;-91
2024/01/05 05:27:44;;;;;;;23.23;13.48;;;3.30;99.90;;;;;;5130927;27;20389;-88
2024/01/05 05:30:10;;;;;;;23.92;14.38;;;3.40;99.90;;;;;;5148434;27;20497;-93
2024/01/05 05:32:36;;;;;;;24.10;14.07;;;3.40;99.90;;;;;;5149660;27;20393;-90
2024/01/05 05:35:02;;;;;;;27.65;14.38;;;3.20;99.90;;;;;;5131861;27;20443;-90
2024/01/05 05:37:27;;;;;;;31.27;16.17;;;3.20;99.90;;;;;;5148888;27;20759;-87
2024/01/05 05:39:53;;;;;;;26.67;15.27;;;3.20;99.90;;;;;;5149433;27;20515;-91
2024/01/05 05:42:19;;;;;;;27.10;15.20;;;3.50;99.90;;;;;;5131329;27;21090;-89
2024/01/05 05:44:44;;;;;;;28.77;16.27;;;3.40;99.90;;;;;;5122127;27;20804;-88
2024/01/05 05:47:10;;;;;;;30.50;16.57;;;3.30;99.90;;;;;;5114673;27;20484;-88
2024/01/05 05:49:36;;;;;;;30.03;15.93;;;3.30;99.90;;;;;;5149923;27;20412;-90
2024/01/05 05:52:04;;;;;;;28.40;15.15;;;3.40;99.90;;;;;;5130517;27;20449;-90
2024/01/05 05:54:29;;;;;;;26.25;15.50;;;3.30;99.90;;;;;;5131740;27;20755;-92
2024/01/05 05:56:56;;;;;;;30.38;15.38;;;3.20;99.90;;;;;;5131963;27;20484;-91
2024/01/05 05:59:22;;;;;;;29.58;15.35;;;3.50;99.90;;;;;;5130984;27;20877;-88
2024/01/05 06:01:48;;;;;;;29.95;15.52;;;3.40;99.90;;;;;;5131856;27;20401;-93
2024/01/05 06:04:14;;;;;;;31.38;16.08;;;3.20;99.90;;;;;;5113888;27;20447;-86
2024/01/05 06:06:40;;;;;;;30.90;16.25;;;3.20;99.90;;;;;;5131715;27;20425;-87
2024/01/05 06:09:07;;;;;;;33.50;17.23;;;3.30;99.90;;;;;;5130439;27;20425;-87
2024/01/05 06:11:33;;;;;;;32.08;17.00;;;3.40;99.90;;;;;;5131803;27;20419;-88
2024/01/05 06:13:59;;;;;;;32.00;16.20;;;3.30;99.90;;;;;;5113629;27;20463;-90
2024/01/05 06:16:25;;;;;;;32.63;16.90;;;3.30;99.90;;;;;;5130683;27;20729;-92
2024/01/05 06:18:51;;;;;;;32.17;17.15;;;3.30;99.90;;;;;;5131856;27;20397;-87
2024/01/05 06:21:17;;;;;;;34.75;16.73;;;3.30;99.90;;;;;;5130867;27;20393;-95
2024/01/05 06:23:42;;;;;;;33.03;16.70;;;3.30;99.90;;;;;;5131831;27;20393;-91
2024/01/05 06:26:08;;;;;;;34.37;17.87;;;3.10;99.90;;;;;;5129689;27;20436;-93
2024/01/05 06:28:33;;;;;;;35.65;17.70;;;3.30;99.90;;;;;;5136498;27;20424;-95
2024/01/05 06:31:02;;;;;;;37.17;18.33;;;3.40;99.90;;;;;;5108451;27;20467;-94
2024/01/05 06:33:28;;;;;;;32.88;18.05;;;3.30;99.90;;;;;;5125854;27;20401;-94
2024/01/05 06:35:54;;;;;;;37.00;18.40;;;3.40;99.90;;;;;;5125093;27;20466;-93
2024/01/05 06:38:22;;;;;;;37.47;18.25;;;3.70;99.90;;;;;;5107477;28;20423;-91
2024/01/05 06:40:48;;;;;;;34.70;18.23;;;3.40;99.90;;;;;;5124472;27;20446;-91
2024/01/05 06:43:14;;;;;;;38.88;18.83;;;3.30;99.90;;;;;;5089445;28;20408;-92
2024/01/05 06:45:39;;;;;;;35.70;18.03;;;3.40;99.90;;;;;;5125479;27;20424;-93
2024/01/05 06:48:06;;;;;;;35.43;18.90;;;3.30;99.90;;;;;;5124209;27;20411;-89
2024/01/05 06:50:34;;;;;;;38.65;18.63;;;3.40;99.90;;;;;;5091233;28;20815;-89
2024/01/05 06:53:00;;;;;;;37.97;19.13;;;3.50;99.90;;;;;;5090449;28;20461;-92
2024/01/05 06:55:26;;;;;;;37.17;19.37;;;3.30;99.90;;;;;;5125389;27;20759;-89
2024/01/05 06:57:51;;;;;;;36.30;18.75;;;3.40;99.90;;;;;;5124154;27;20412;-92
2024/01/05 07:00:17;;;;;;;41.40;19.58;;;3.40;99.90;;;;;;5124864;27;20504;-91
2024/01/05 07:02:43;;;;;;;38.78;19.90;;;3.40;99.90;;;;;;5108580;28;20452;-91
2024/01/05 07:05:08;;;;;;;45.07;21.40;;;3.60;99.90;;;;;;5127683;27;20408;-89
2024/01/05 07:07:34;;;;;;;38.90;19.73;;;3.60;99.90;;;;;;5128492;27;20404;-88
2024/01/05 07:10:00;;;;;;;41.03;20.67;;;3.60;99.90;;;;;;5109964;28;20515;-90
2024/01/05 07:12:29;;;;;;;42.42;21.02;;;3.50;99.90;;;;;;5094025;28;20408;-89
2024/01/05 07:14:55;;;;;;;44.33;20.88;;;3.50;99.90;;;;;;5110159;28;20411;-91
2024/01/05 07:17:21;;;;;;;43.50;21.30;;;3.40;99.90;;;;;;5093826;28;20400;-90
2024/01/05 07:19:46;;;;;;;39.80;20.13;;;3.50;99.90;;;;;;5129198;27;20400;-91
2024/01/05 07:22:12;;;;;;;40.40;19.83;;;3.60;99.90;;;;;;5110513;28;20416;-91
2024/01/05 07:24:38;;;;;;;35.40;19.48;;;3.70;99.90;;;;;;5094292;28;20465;-93
2024/01/05 07:27:09;;;;;;;37.22;19.70;;;3.60;99.90;;;;;;5127239;27;20408;-94
2024/01/05 07:29:34;;;;;;;40.55;20.13;;;3.80;99.90;;;;;;5116953;27;20457;-89
2024/01/05 07:32:01;;;;;;;38.10;20.10;;;3.80;99.90;;;;;;5133418;27;20401;-90
2024/01/05 07:34:27;;;;;;;39.47;19.77;;;3.60;99.90;;;;;;5135125;27;20411;-90
2024/01/05 07:36:53;;;;;;;36.42;19.42;;;3.60;99.90;;;;;;5119851;27;20765;-89
2024/01/05 07:39:19;;;;;;;40.22;19.75;;;3.40;99.90;;;;;;5113354;27;20395;-88
2024/01/05 07:41:45;;;;;;;36.53;18.92;;;3.70;99.90;;;;;;5114197;27;20413;-93
2024/01/05 07:44:11;;;;;;;37.22;19.65;;;3.70;99.90;;;;;;5112866;27;20390;-90
2024/01/05 07:46:43;;;;;;;37.30;18.90;;;3.70;99.90;;;;;;5114085;27;20421;-89
2024/01/05 07:49:09;;;;;;;35.00;18.35;;;4.00;99.90;;;;;;5112707;27;20862;-87
2024/01/05 07:51:35;;;;;;;37.42;19.25;;;3.80;99.90;;;;;;5113818;27;20434;-90
2024/01/05 07:54:01;;;;;;;35.15;18.85;;;3.70;99.90;;;;;;5118931;27;20395;-89
2024/01/05 07:56:26;;;;;;;36.92;18.40;;;3.70;99.90;;;;;;5133887;27;20401;-89
2024/01/05 07:58:52;;;;;;;34.63;18.98;;;3.80;99.90;;;;;;5133507;27;20393;-87
2024/01/05 08:01:18;;;;;;;37.03;18.52;;;3.70;99.90;;;;;;5132991;27;20393;-88
2024/01/05 08:03:48;;;;;;;35.35;18.27;;;3.80;99.90;;;;;;5133720;27;20401;-89
2024/01/05 08:06:18;;;;;;;35.50;18.13;;;3.90;99.90;;;;;;5133195;27;20573;-89
2024/01/05 08:08:48;;;;;;;35.97;18.23;;;3.80;99.90;;;;;;5151288;27;20396;-88
2024/01/05 08:11:14;;;;;;;37.05;18.95;;;3.70;99.90;;;;;;5132892;27;20409;-91
2024/01/05 08:13:42;;;;;;;35.38;18.52;;;3.90;99.90;;;;;;5133945;27;20409;-89
2024/01/05 08:16:08;;;;;;;35.88;19.17;;;3.90;99.90;;;;;;5133124;27;20404;-93
2024/01/05 08:18:37;;;;;;;35.13;18.80;;;3.90;99.90;;;;;;5124192;27;20789;-91
2024/01/05 08:21:03;;;;;;;40.35;19.85;;;3.90;99.90;;;;;;5112860;27;21053;-89
2024/01/05 08:23:30;;;;;;;39.25;20.20;;;3.90;99.90;;;;;;5111814;27;20432;-90
2024/01/05 08:25:56;;;;;;;41.55;20.70;;;3.90;99.90;;;;;;5133734;27;20399;-90
2024/01/05 08:28:23;;;;;;;41.90;20.67;;;3.90;99.90;;;;;;5132840;27;20409;-86
2024/01/05 08:30:48;;;;;;;44.35;21.60;;;3.90;99.90;;;;;;5133304;27;20834;-91
2024/01/05 08:33:14;;;;;;;43.30;21.60;;;4.00;99.90;;;;;;5133040;27;20400;-92
2024/01/05 08:35:40;;;;;;;51.63;23.27;;;4.00;99.90;;;;;;5132886;27;20397;-89
2024/01/05 08:38:06;;;;;;;46.10;22.73;;;4.30;99.90;;;;;;5133463;27;20476;-91
2024/01/05 08:40:32;;;;;;;49.83;22.93;;;4.40;99.90;;;;;;5132947;27;20808;-91
2024/01/05 08:43:00;;;;;;;46.00;23.30;;;4.20;99.90;;;;;;5134480;27;21037;-90
2024/01/05 08:45:27;;;;;;;52.15;24.15;;;4.10;99.90;;;;;;5132353;27;20751;-88
2024/01/05 08:47:53;;;;;;;52.70;23.90;;;4.10;99.90;;;;;;5133717;27;20401;-92
2024/01/05 08:50:19;;;;;;;54.88;24.20;;;4.10;99.90;;;;;;5132711;27;20473;-89
2024/01/05 08:52:45;;;;;;;53.90;24.65;;;4.10;99.90;;;;;;5133027;27;20389;-94
2024/01/05 08:55:15;;;;;;;49.53;24.40;;;4.30;99.90;;;;;;5132908;27;20401;-89
2024/01/05 08:57:41;;;;;;;47.53;23.33;;;4.10;99.90;;;;;;5149938;27;20859;-90
2024/01/05 09:00:10;;;;;;;53.03;24.83;;;4.10;99.90;;;;;;5133385;27;20389;-93
2024/01/05 09:02:36;;;;;;;60.83;25.10;;;4.10;99.90;;;;;;5132067;27;20547;-90
2024/01/05 09:05:05;;;;;;;55.63;24.30;;;4.20;99.90;;;;;;5133305;27;20869;-91
2024/01/05 09:07:32;;;;;;;57.77;25.00;;;4.20;99.90;;;;;;5131545;27;20484;-92
2024/01/05 09:09:58;;;;;;;53.83;24.67;;;4.20;99.90;;;;;;5122379;27;20513;-90
2024/01/05 09:12:23;;;;;;;52.57;24.00;;;4.40;99.90;;;;;;5112245;27;20414;-90
2024/01/05 09:14:49;;;;;;;57.17;24.38;;;4.20;99.90;;;;;;5111447;27;20491;-89
2024/01/05 09:17:15;;;;;;;57.88;25.00;;;4.20;99.90;;;;;;5112213;27;20402;-94
2024/01/05 09:19:40;;;;;;;51.22;23.30;;;4.20;99.90;;;;;;5111117;27;20490;-90
2024/01/05 09:22:07;;;;;;;52.70;23.20;;;4.20;99.90;;;;;;5112042;27;20443;-92
2024/01/05 09:24:36;;;;;;;53.58;23.75;;;4.20;99.90;;;;;;5134191;27;20401;-93
2024/01/05 09:27:02;;;;;;;53.17;23.00;;;4.30;99.90;;;;;;5131221;27;20389;-91
2024/01/05 09:29:29;;;;;;;52.15;23.00;;;4.20;99.90;;;;;;5111375;27;20909;-92
2024/01/05 09:31:55;;;;;;;55.73;23.10;;;4.20;99.90;;;;;;5111635;27;20399;-93
2024/01/05 09:34:23;;;;;;;51.20;23.25;;;4.30;99.90;;;;;;5094262;27;20495;-89
2024/01/05 09:36:50;;;;;;;53.10;22.80;;;4.30;99.90;;;;;;5118513;27;20457;-88
2024/01/05 09:39:16;;;;;;;57.60;24.05;;;4.20;99.90;;;;;;5149547;27;20421;-92
2024/01/05 09:41:42;;;;;;;55.37;24.03;;;4.20;99.90;;;;;;5131450;27;20436;-90
2024/01/05 09:44:12;;;;;;;52.47;22.90;;;4.40;99.90;;;;;;5132775;27;20417;-91
2024/01/05 09:46:43;;;;;;;44.05;21.52;;;4.30;99.90;;;;;;5131172;27;20469;-89
2024/01/05 09:49:09;;;;;;;49.95;21.17;;;4.50;99.90;;;;;;5131635;27;20421;-91
2024/01/05 09:51:36;;;;;;;48.13;20.13;;;4.40;99.90;;;;;;5131367;27;20386;-89
2024/01/05 09:54:02;;;;;;;44.15;20.38;;;4.30;99.90;;;;;;5131321;27;20389;-90
2024/01/05 09:56:29;;;;;;;47.55;19.80;;;4.20;99.90;;;;;;5132132;27;20401;-94
2024/01/05 09:58:55;;;;;;;49.75;20.38;;;4.40;99.90;;;;;;5130425;27;20429;-92
2024/01/05 10:01:27;;;;;;;48.53;19.40;;;4.30;99.90;;;;;;5149864;27;20904;-93
2024/01/05 10:04:03;;;;;;;39.55;17.65;;;4.60;99.90;;;;;;5124272;27;20398;-89
2024/01/05 10:06:30;;;;;;;42.30;18.20;;;4.40;99.90;;;;;;5111062;27;20407;-90
2024/01/05 10:09:00;;;;;;;46.15;19.02;;;4.40;99.90;;;;;;5110611;27;20951;-90
2024/01/05 10:11:31;;;;;;;42.28;17.90;;;4.50;99.90;;;;;;5110123;27;20391;-93
2024/01/05 10:14:00;;;;;;;41.70;17.88;;;4.50;99.90;;;;;;5111125;27;20414;-90
2024/01/05 10:16:33;;;;;;;36.70;17.48;;;4.60;99.90;;;;;;5127328;27;20402;-92
2024/01/05 10:19:13;;;;;;;40.33;17.30;;;4.60;99.90;;;;;;5110818;27;20466;-92
2024/01/05 10:21:41;;;;;;;39.73;16.67;;;4.60;99.90;;;;;;5114617;27;20972;-92
2024/01/05 10:24:27;;;;;;;41.35;16.60;;;4.70;99.90;;;;;;5130669;27;20443;-90
2024/01/05 10:27:07;;;;;;;34.92;16.05;;;4.80;99.90;;;;;;5148707;27;20408;-91
2024/01/05 10:29:36;;;;;;;49.55;18.60;;;4.70;99.90;;;;;;5129929;27;20425;-93
2024/01/05 10:32:11;;;;;;;46.60;17.37;;;4.90;99.90;;;;;;5131472;27;20401;-91
2024/01/05 10:34:37;;;;;;;35.27;15.97;;;4.90;99.90;;;;;;5131246;27;20396;-90
2024/01/05 10:37:06;;;;;;;38.90;17.35;;;4.70;99.90;;;;;;5130673;27;20725;-91
2024/01/05 10:39:32;;;;;;;38.28;16.77;;;4.70;99.90;;;;;;5130861;27;20903;-91
2024/01/05 10:42:20;;;;;;;36.53;16.83;;;4.80;99.90;;;;;;5130752;27;20397;-90
2024/01/05 10:44:51;;;;;;;43.07;17.40;;;4.90;99.90;;;;;;5131788;27;20513;-92
2024/01/05 10:47:26;;;;;;;35.38;16.75;;;4.90;99.90;;;;;;5130603;27;20397;-91
2024/01/05 10:49:54;;;;;;;38.65;17.88;;;4.90;99.90;;;;;;5147606;27;21220;-90
2024/01/05 10:52:22;;;;;;;41.30;17.92;;;4.90;99.90;;;;;;5123043;27;20399;-89
2024/01/05 10:54:50;;;;;;;40.65;17.70;;;4.80;99.90;;;;;;5110109;27;20410;-89
2024/01/05 10:57:18;;;;;;;40.08;18.27;;;5.00;99.90;;;;;;5110916;28;20761;-91
2024/01/05 10:59:51;;;;;;;34.80;17.10;;;5.10;99.90;;;;;;5124700;27;20441;-91
2024/01/05 11:02:29;;;;;;;37.63;17.85;;;5.10;99.90;;;;;;5127736;27;20442;-89
2024/01/05 11:05:09;;;;;;;37.47;17.92;;;5.10;99.90;;;;;;5110037;28;20410;-88
2024/01/05 11:07:37;;;;;;;38.45;18.55;;;5.20;99.90;;;;;;5109368;28;20455;-91
2024/01/05 11:10:14;;;;;;;39.30;17.95;;;5.20;99.90;;;;;;5110410;28;20524;-89
2024/01/05 11:12:52;;;;;;;42.67;19.17;;;5.20;99.90;;;;;;5109082;28;20403;-89
2024/01/05 11:16:02;;;;;;;35.00;16.95;;;5.20;99.90;;;;;;5109272;28;20417;-90
2024/01/05 11:18:36;;;;;;;37.38;17.98;;;5.30;99.90;;;;;;5127167;27;20486;-90
2024/01/05 11:21:16;;;;;;;41.65;18.50;;;5.30;99.90;;;;;;5108823;28;20398;-91
2024/01/05 11:23:43;;;;;;;38.70;18.13;;;5.30;99.90;;;;;;5119559;28;20403;-89
2024/01/05 11:26:32;;;;;;;41.10;18.93;;;5.40;99.90;;;;;;5108036;28;20402;-91
2024/01/05 11:28:57;;;;;;;38.97;19.23;;;5.40;99.90;;;;;;5108391;28;20467;-88
2024/01/05 11:31:46;;;;;;;41.42;19.23;;;5.40;99.90;;;;;;5126022;27;20399;-90
2024/01/05 11:34:31;;;;;;;45.95;19.80;;;5.50;99.90;;;;;;5092669;28;20410;-90
2024/01/05 11:36:57;;;;;;;41.95;19.15;;;5.50;99.90;;;;;;5126436;27;20438;-89
2024/01/05 11:39:41;;;;;;;37.70;18.35;;;5.50;99.90;;;;;;5109245;28;20394;-89
2024/01/05 11:42:07;;;;;;;42.67;18.90;;;5.60;99.90;;;;;;5122662;27;20408;-89
2024/01/05 11:44:34;;;;;;;39.92;18.83;;;5.60;99.90;;;;;;5122695;27;20449;-92
2024/01/05 11:47:03;;;;;;;36.63;17.90;;;5.60;99.90;;;;;;5099540;28;20746;-89
2024/01/05 11:49:37;;;;;;;35.65;17.58;;;5.70;99.90;;;;;;5110324;27;20425;-89
2024/01/05 11:52:03;;;;;;;35.40;18.50;;;5.70;99.90;;;;;;5112170;27;20399;-88
2024/01/05 11:54:29;;;;;;;34.93;17.53;;;5.90;99.90;;;;;;5112200;27;20554;-88
2024/01/05 11:56:59;;;;;;;32.90;17.17;;;5.80;99.90;;;;;;5112625;27;20541;-89
2024/01/05 11:59:25;;;;;;;31.52;16.92;;;5.80;99.90;;;;;;5111331;27;20406;-91
2024/01/05 12:01:54;;;;;;;31.87;16.90;;;5.90;99.90;;;;;;5113532;27;20417;-90
2024/01/05 12:04:20;;;;;;;32.87;16.80;;;5.70;99.90;;;;;;5111800;27;20432;-89
2024/01/05 12:06:52;;;;;;;38.13;18.17;;;5.70;99.90;;;;;;5113678;27;20430;-89
2024/01/05 12:09:19;;;;;;;38.00;18.30;;;5.90;99.90;;;;;;5123712;27;20431;-89
2024/01/05 12:11:44;;;;;;;34.33;17.58;;;5.80;99.90;;;;;;5129185;27;20403;-89
2024/01/05 12:14:10;;;;;;;33.65;18.00;;;5.80;99.90;;;;;;5133298;27;20397;-88
2024/01/05 12:16:36;;;;;;;35.15;18.30;;;5.80;99.90;;;;;;5125438;27;20463;-89
2024/01/05 12:19:01;;;;;;;31.70;16.95;;;5.90;99.90;;;;;;5112514;27;20468;-89
2024/01/05 12:21:27;;;;;;;30.50;16.27;;;5.90;99.90;;;;;;5111324;27;20402;-89
2024/01/05 12:23:55;;;;;;;35.30;16.83;;;5.90;99.90;;;;;;5112873;27;20867;-89
2024/01/05 12:26:21;;;;;;;28.48;15.40;;;6.00;99.90;;;;;;5111915;27;20395;-87
2024/01/05 12:28:48;;;;;;;34.78;17.42;;;6.00;99.90;;;;;;5112237;27;20409;-89
2024/01/05 12:31:14;;;;;;;35.78;17.60;;;6.30;99.90;;;;;;5111584;27;20409;-90
2024/01/05 12:33:42;;;;;;;32.65;17.50;;;5.80;99.90;;;;;;5128395;27;20402;-88
2024/01/05 12:36:14;;;;;;;32.88;17.70;;;6.00;99.90;;;;;;5112165;27;20398;-89